Time;durP1;ratioP1;P1;durP2;ratioP2;P2;SDS_P1;SDS_P2;PMS_P1;PMS_P2;Temp;Humidity;BMP_temperature;BMP_pressure;BME280_temperature;BME280_humidity;BME280_pressure;Samples;Min_cycle;Max_cycle;Signal;HPM_P1;HPM_P2
2023/03/27 00:02:21;;;;;;;7.57;1.55;;;2.80;99.90;;;;;;6189354;23;20338;-77
2023/03/27 00:04:47;;;;;;;9.90;1.40;;;2.80;99.90;;;;;;6216408;23;20028;-76
2023/03/27 00:07:13;;;;;;;7.97;1.50;;;2.70;99.90;;;;;;6188934;23;20020;-77
2023/03/27 00:09:39;;;;;;;9.98;1.70;;;2.70;99.90;;;;;;6189464;23;20080;-78
2023/03/27 00:12:05;;;;;;;8.65;1.83;;;2.70;99.90;;;;;;6216320;23;20017;-77
2023/03/27 00:14:31;;;;;;;7.75;1.48;;;2.80;99.90;;;;;;6216568;23;20338;-76
2023/03/27 00:16:58;;;;;;;9.23;2.10;;;2.70;99.90;;;;;;6189162;23;20412;-81
2023/03/27 00:19:25;;;;;;;13.43;1.50;;;2.70;99.90;;;;;;6164847;23;20023;-79
2023/03/27 00:21:52;;;;;;;10.25;1.73;;;2.80;99.90;;;;;;6189335;23;20012;-78
2023/03/27 00:24:17;;;;;;;7.80;1.77;;;2.70;99.90;;;;;;6216388;23;20055;-78
2023/03/27 00:26:43;;;;;;;13.07;1.77;;;2.70;99.90;;;;;;6188929;23;20013;-78
2023/03/27 00:29:09;;;;;;;15.18;1.92;;;2.70;99.90;;;;;;6216441;23;20431;-80
2023/03/27 00:31:35;;;;;;;7.78;1.45;;;2.70;99.90;;;;;;6189268;23;20044;-80
2023/03/27 00:34:02;;;;;;;14.50;1.98;;;2.70;99.90;;;;;;6215934;23;20486;-77
2023/03/27 00:36:28;;;;;;;6.05;1.40;;;2.70;99.90;;;;;;6189267;23;20019;-81
2023/03/27 00:38:53;;;;;;;10.85;1.50;;;2.60;99.90;;;;;;6189050;23;20012;-80
2023/03/27 00:41:20;;;;;;;13.35;1.65;;;2.60;99.90;;;;;;6216018;23;20092;-81
2023/03/27 00:43:48;;;;;;;6.10;1.35;;;2.60;99.90;;;;;;6189287;23;20382;-78
2023/03/27 00:46:32;;;;;;;6.97;1.23;;;2.60;99.90;;;;;;6188819;23;20083;-79
2023/03/27 00:49:02;;;;;;;13.38;1.73;;;2.60;99.90;;;;;;6189291;23;20039;-75
2023/03/27 00:51:30;;;;;;;7.63;1.25;;;2.50;99.90;;;;;;6189286;23;20016;-80
2023/03/27 00:53:56;;;;;;;16.75;2.78;;;2.50;99.90;;;;;;6189043;23;20009;-79
2023/03/27 00:56:23;;;;;;;9.68;1.75;;;2.50;99.90;;;;;;6216054;23;20434;-78
2023/03/27 00:58:54;;;;;;;8.95;1.33;;;2.50;99.90;;;;;;6213659;23;20454;-78
2023/03/27 01:01:23;;;;;;;6.65;1.33;;;2.60;99.90;;;;;;6189001;23;20426;-80
2023/03/27 01:03:50;;;;;;;8.55;1.30;;;2.50;99.90;;;;;;6216551;23;20055;-77
2023/03/27 01:06:17;;;;;;;13.60;2.22;;;2.50;99.90;;;;;;6189168;23;20016;-76
2023/03/27 01:08:44;;;;;;;7.25;1.40;;;2.50;99.90;;;;;;6216068;23;20327;-81
2023/03/27 01:11:31;;;;;;;7.50;1.35;;;2.50;99.90;;;;;;6215579;23;20023;-77
2023/03/27 01:14:12;;;;;;;6.80;1.00;;;2.50;99.90;;;;;;6215982;23;20087;-77
2023/03/27 01:16:51;;;;;;;9.70;2.47;;;2.50;99.90;;;;;;6188817;23;20016;-80
2023/03/27 01:19:37;;;;;;;8.98;1.30;;;2.50;99.90;;;;;;6215438;23;20450;-77
2023/03/27 01:22:11;;;;;;;;;;;2.50;99.90;;;;;;6189543;23;20510;-77
2023/03/27 01:24:59;;;;;;;8.48;1.35;;;2.50;99.90;;;;;;6216350;23;19912;-78
2023/03/27 01:28:01;;;;;;;8.98;1.20;;;2.50;99.90;;;;;;6134381;23;20013;-75
2023/03/27 01:30:37;;;;;;;6.75;1.00;;;2.50;99.90;;;;;;6188818;23;20052;-79
2023/03/27 01:33:20;;;;;;;8.25;2.25;;;2.50;99.90;;;;;;6163976;23;20015;-77
2023/03/27 01:36:07;;;;;;;9.07;1.30;;;2.50;99.90;;;;;;6164053;23;20442;-77
2023/03/27 01:38:52;;;;;;;13.23;1.30;;;2.50;99.90;;;;;;6188737;23;20462;-81
2023/03/27 01:41:31;;;;;;;7.55;1.00;;;2.40;99.90;;;;;;6216365;23;20044;-78
2023/03/27 01:44:07;;;;;;;6.53;1.85;;;2.40;99.90;;;;;;6216378;23;20454;-77
2023/03/27 01:46:43;;;;;;;;;;;2.40;99.90;;;;;;6217153;23;20013;-76
2023/03/27 01:49:17;;;;;;;5.63;1.60;;;2.40;99.90;;;;;;6189203;23;19986;-76
2023/03/27 01:51:49;;;;;;;9.63;1.33;;;2.40;99.90;;;;;;6214846;23;20020;-80
2023/03/27 01:54:20;;;;;;;5.20;1.20;;;2.30;99.90;;;;;;6189074;23;20236;-81
2023/03/27 01:57:01;;;;;;;12.63;1.58;;;2.30;99.90;;;;;;6189087;23;20039;-79
2023/03/27 01:59:28;;;;;;;7.68;1.10;;;2.30;99.90;;;;;;6215805;23;20013;-78
2023/03/27 02:02:00;;;;;;;7.20;1.13;;;2.30;99.90;;;;;;6188974;23;20024;-77
2023/03/27 02:04:50;;;;;;;5.35;1.13;;;2.30;99.90;;;;;;6189371;23;20106;-80
2023/03/27 02:07:22;;;;;;;9.50;1.30;;;2.30;99.90;;;;;;6189150;23;20095;-76
2023/03/27 02:09:52;;;;;;;8.05;1.25;;;2.30;99.90;;;;;;6215759;23;20028;-76
2023/03/27 02:12:34;;;;;;;10.98;1.35;;;2.20;99.90;;;;;;6188765;23;20016;-80
2023/03/27 02:15:16;;;;;;;13.20;2.13;;;2.20;99.90;;;;;;6215572;23;20108;-78
2023/03/27 02:17:48;;;;;;;10.70;1.33;;;2.30;99.90;;;;;;6215823;23;20025;-78
2023/03/27 02:20:15;;;;;;;8.10;1.75;;;2.30;99.90;;;;;;6189173;23;20017;-79
2023/03/27 02:22:47;;;;;;;11.45;1.58;;;2.30;99.90;;;;;;6188957;23;20346;-78
2023/03/27 02:25:40;;;;;;;8.10;1.15;;;2.40;99.90;;;;;;6189794;23;20012;-79
2023/03/27 02:28:32;;;;;;;9.02;1.13;;;2.50;99.90;;;;;;6209845;23;20024;-78
2023/03/27 02:31:37;;;;;;;7.97;1.88;;;2.40;99.90;;;;;;6190402;23;20017;-77
2023/03/27 02:34:15;;;;;;;7.40;1.13;;;2.40;99.90;;;;;;6190889;23;20020;-78
2023/03/27 02:37:18;;;;;;;11.63;1.10;;;2.50;99.90;;;;;;6190656;23;20020;-77
2023/03/27 02:39:44;;;;;;;10.15;1.13;;;2.40;99.90;;;;;;6190209;23;20395;-79
2023/03/27 02:42:30;;;;;;;4.70;1.15;;;2.40;99.90;;;;;;6190644;23;20013;-79
2023/03/27 02:45:17;;;;;;;7.78;1.08;;;2.40;99.90;;;;;;6190468;23;20339;-77
2023/03/27 02:47:57;;;;;;;5.28;1.42;;;2.30;99.90;;;;;;6190086;23;20009;-79
2023/03/27 02:50:48;;;;;;;8.93;1.40;;;2.30;99.90;;;;;;6190257;23;20017;-78
2023/03/27 02:53:20;;;;;;;9.43;1.10;;;2.20;99.90;;;;;;6165782;23;20016;-80
2023/03/27 02:55:56;;;;;;;4.75;1.00;;;2.20;99.90;;;;;;6191096;23;20008;-81
2023/03/27 02:58:31;;;;;;;3.60;0.80;;;2.10;99.90;;;;;;6190180;23;20087;-80
2023/03/27 03:00:58;;;;;;;8.85;1.08;;;2.10;99.90;;;;;;6190625;23;20039;-80
2023/03/27 03:03:41;;;;;;;6.65;1.00;;;2.00;99.90;;;;;;6217132;23;20522;-77
2023/03/27 03:06:09;;;;;;;6.00;1.75;;;2.00;99.90;;;;;;6190966;23;20017;-76
2023/03/27 03:08:39;;;;;;;8.63;1.20;;;2.00;99.90;;;;;;6165343;23;20020;-77
2023/03/27 03:11:09;;;;;;;2.83;1.00;;;2.00;99.90;;;;;;6190117;23;20435;-77
2023/03/27 03:13:35;;;;;;;4.40;1.00;;;2.00;99.90;;;;;;6190406;23;20048;-78
2023/03/27 03:16:00;;;;;;;8.63;1.35;;;2.10;99.90;;;;;;6216927;23;20016;-76
2023/03/27 03:18:26;;;;;;;6.95;1.20;;;2.10;99.90;;;;;;6216756;23;20004;-80
2023/03/27 03:20:54;;;;;;;5.88;1.33;;;2.20;99.90;;;;;;6216858;23;20020;-76
2023/03/27 03:23:21;;;;;;;9.20;1.70;;;2.30;99.90;;;;;;6189841;23;20013;-77
2023/03/27 03:25:49;;;;;;;4.75;1.20;;;2.30;99.90;;;;;;6217016;23;20009;-76
2023/03/27 03:28:17;;;;;;;10.45;1.73;;;2.40;99.90;;;;;;6189832;23;20023;-78
2023/03/27 03:30:46;;;;;;;8.60;1.73;;;2.40;99.90;;;;;;6191470;23;20059;-76
2023/03/27 03:33:13;;;;;;;8.57;1.35;;;2.30;99.90;;;;;;6216962;23;20028;-80
2023/03/27 03:35:39;;;;;;;8.80;2.10;;;2.30;99.90;;;;;;6189881;23;20013;-79
2023/03/27 03:38:05;;;;;;;9.43;2.10;;;2.20;99.90;;;;;;6165690;23;20057;-78
2023/03/27 03:40:31;;;;;;;10.73;1.85;;;2.20;99.90;;;;;;6216370;23;20017;-80
2023/03/27 03:42:57;;;;;;;13.05;1.88;;;2.10;99.90;;;;;;6189811;23;20039;-74
2023/03/27 03:45:23;;;;;;;12.48;2.45;;;2.10;99.90;;;;;;6189546;23;20103;-80
2023/03/27 03:47:49;;;;;;;6.55;2.75;;;2.00;99.90;;;;;;6189954;23;20346;-78
2023/03/27 03:50:14;;;;;;;10.57;1.63;;;2.00;99.90;;;;;;6189844;23;20529;-75
2023/03/27 03:52:40;;;;;;;5.57;1.75;;;1.90;99.90;;;;;;6189916;23;20020;-78
2023/03/27 03:55:08;;;;;;;7.80;1.65;;;1.90;99.90;;;;;;6165383;23;20066;-75
2023/03/27 03:57:35;;;;;;;4.47;1.33;;;1.80;99.90;;;;;;6189637;23;20047;-76
2023/03/27 04:00:05;;;;;;;7.75;1.58;;;1.80;99.90;;;;;;6189919;23;20058;-79
2023/03/27 04:02:33;;;;;;;7.65;1.75;;;1.80;99.90;;;;;;6216786;23;20020;-77
2023/03/27 04:04:59;;;;;;;10.30;1.95;;;1.70;99.90;;;;;;6165405;23;20047;-79
2023/03/27 04:07:34;;;;;;;8.98;2.00;;;1.70;99.90;;;;;;6189966;23;20017;-75
2023/03/27 04:10:01;;;;;;;10.93;3.17;;;1.70;99.90;;;;;;6189720;23;20020;-77
2023/03/27 04:12:28;;;;;;;12.43;2.47;;;1.70;99.90;;;;;;6190359;23;20024;-77
2023/03/27 04:14:54;;;;;;;6.05;1.60;;;1.70;99.90;;;;;;6215929;23;20013;-77
2023/03/27 04:17:21;;;;;;;4.65;1.10;;;1.60;99.90;;;;;;6190098;23;20079;-80
2023/03/27 04:19:48;;;;;;;8.93;1.50;;;1.70;99.90;;;;;;6216439;23;20008;-77
2023/03/27 04:22:17;;;;;;;8.23;1.80;;;1.60;99.90;;;;;;6217241;23;20338;-76
2023/03/27 04:24:43;;;;;;;10.05;2.10;;;1.60;99.90;;;;;;6189604;23;20028;-81
2023/03/27 04:27:10;;;;;;;8.35;1.70;;;1.60;99.90;;;;;;6190038;23;20016;-76
2023/03/27 04:29:35;;;;;;;9.18;2.08;;;1.60;99.90;;;;;;6189543;23;20009;-76
2023/03/27 04:32:02;;;;;;;9.32;1.90;;;1.60;99.90;;;;;;6189281;23;20094;-79
2023/03/27 04:34:27;;;;;;;8.18;1.80;;;1.70;99.90;;;;;;6189910;23;20017;-77
2023/03/27 04:36:54;;;;;;;9.63;2.20;;;1.70;99.90;;;;;;6189546;23;20009;-77
2023/03/27 04:39:21;;;;;;;7.03;1.63;;;1.70;99.90;;;;;;6215729;23;20015;-79
2023/03/27 04:41:49;;;;;;;7.75;2.47;;;1.70;99.90;;;;;;6164654;23;20498;-77
2023/03/27 04:44:19;;;;;;;7.88;1.98;;;1.70;99.90;;;;;;6189367;23;20442;-80
2023/03/27 04:46:47;;;;;;;12.57;3.00;;;1.70;99.90;;;;;;6189525;23;20019;-80
2023/03/27 04:49:15;;;;;;;9.75;2.15;;;1.60;99.90;;;;;;6189283;23;20015;-77
2023/03/27 04:51:41;;;;;;;11.02;2.20;;;1.60;99.90;;;;;;6189327;23;20363;-81
2023/03/27 04:54:07;;;;;;;9.43;2.80;;;1.60;99.90;;;;;;6189972;23;20299;-78
2023/03/27 04:56:33;;;;;;;17.27;2.85;;;1.60;99.90;;;;;;6189427;23;20017;-81
2023/03/27 04:59:00;;;;;;;11.63;2.97;;;1.60;99.90;;;;;;6214400;23;20017;-76
2023/03/27 05:01:26;;;;;;;11.57;2.75;;;1.60;99.90;;;;;;6164743;23;20039;-75
2023/03/27 05:03:52;;;;;;;15.80;2.50;;;1.60;99.90;;;;;;6214653;23;20009;-76
2023/03/27 05:06:18;;;;;;;9.57;1.98;;;1.60;99.90;;;;;;6189088;23;20020;-75
2023/03/27 05:08:43;;;;;;;10.30;2.10;;;1.60;99.90;;;;;;6216263;23;20019;-76
2023/03/27 05:11:09;;;;;;;16.92;2.40;;;1.60;99.90;;;;;;6189311;23;20051;-79
2023/03/27 05:13:35;;;;;;;8.80;2.25;;;1.60;99.90;;;;;;6188921;23;20098;-77
2023/03/27 05:16:01;;;;;;;9.45;2.22;;;1.70;99.90;;;;;;6215786;23;20030;-78
2023/03/27 05:18:29;;;;;;;11.18;2.65;;;1.70;99.90;;;;;;6191949;23;20040;-80
2023/03/27 05:20:56;;;;;;;8.38;2.67;;;1.70;99.90;;;;;;6217160;23;20339;-81
2023/03/27 05:23:22;;;;;;;13.55;2.15;;;1.70;99.90;;;;;;6189994;23;20020;-78
2023/03/27 05:25:48;;;;;;;11.45;1.95;;;1.70;99.90;;;;;;6216456;23;20012;-76
2023/03/27 05:28:14;;;;;;;14.32;2.35;;;1.70;99.90;;;;;;6216201;23;20105;-77
2023/03/27 05:30:41;;;;;;;7.35;2.22;;;1.80;99.90;;;;;;6216084;23;20015;-75
2023/03/27 05:33:07;;;;;;;16.52;2.70;;;1.70;99.90;;;;;;6216458;23;20008;-80
2023/03/27 05:35:33;;;;;;;14.32;2.90;;;1.70;99.90;;;;;;6189430;23;20451;-75
2023/03/27 05:38:00;;;;;;;5.90;2.00;;;1.70;99.90;;;;;;6189721;23;20019;-81
2023/03/27 05:40:27;;;;;;;10.00;2.33;;;1.70;99.90;;;;;;6216026;23;20017;-83
2023/03/27 05:42:54;;;;;;;12.35;2.28;;;1.70;99.90;;;;;;6189353;23;20017;-78
2023/03/27 05:45:22;;;;;;;9.18;2.17;;;1.70;99.90;;;;;;6164740;23;20035;-80
2023/03/27 05:47:50;;;;;;;9.45;1.92;;;1.70;99.90;;;;;;6189180;23;20016;-77
2023/03/27 05:50:17;;;;;;;7.40;2.05;;;1.80;99.90;;;;;;6189114;23;20017;-77
2023/03/27 05:52:42;;;;;;;11.75;2.28;;;1.80;99.90;;;;;;6215803;23;20085;-78
2023/03/27 05:55:09;;;;;;;11.82;2.10;;;1.80;99.90;;;;;;6188654;23;20052;-77
2023/03/27 05:57:39;;;;;;;8.25;1.95;;;1.80;99.90;;;;;;6188841;23;20410;-75
2023/03/27 06:00:09;;;;;;;14.75;1.70;;;1.90;99.90;;;;;;6213917;23;20055;-76
2023/03/27 06:02:35;;;;;;;6.47;1.35;;;1.90;99.90;;;;;;6188868;23;20085;-79
2023/03/27 06:05:00;;;;;;;10.63;2.15;;;1.90;99.90;;;;;;6165502;23;20089;-79
2023/03/27 06:07:27;;;;;;;8.27;1.70;;;2.00;99.90;;;;;;6190899;23;20074;-78
2023/03/27 06:09:53;;;;;;;12.82;2.15;;;2.00;99.90;;;;;;6191232;23;20086;-78
2023/03/27 06:12:19;;;;;;;6.95;1.52;;;2.10;99.90;;;;;;6191848;23;20012;-79
2023/03/27 06:14:45;;;;;;;8.90;1.40;;;2.10;99.90;;;;;;6190783;23;20012;-78
2023/03/27 06:17:11;;;;;;;10.30;1.50;;;2.10;99.90;;;;;;6191696;23;20020;-75
2023/03/27 06:19:36;;;;;;;7.90;1.73;;;2.10;99.90;;;;;;6191552;23;20017;-76
2023/03/27 06:22:02;;;;;;;6.82;1.17;;;2.10;99.90;;;;;;6191918;23;20053;-85
2023/03/27 06:24:27;;;;;;;10.93;1.65;;;2.20;99.90;;;;;;6193498;23;20303;-84
2023/03/27 06:26:53;;;;;;;15.60;2.35;;;2.20;99.90;;;;;;6192280;23;20104;-83
2023/03/27 06:29:19;;;;;;;5.72;1.35;;;2.20;99.90;;;;;;6193544;23;20063;-87
2023/03/27 06:31:44;;;;;;;6.35;1.65;;;2.20;99.90;;;;;;6192764;23;20013;-88
2023/03/27 06:34:13;;;;;;;7.13;1.20;;;2.30;99.90;;;;;;6193072;23;20013;-86
2023/03/27 06:36:39;;;;;;;10.23;1.40;;;2.30;99.90;;;;;;6192753;23;20106;-82
2023/03/27 06:39:05;;;;;;;3.58;1.15;;;2.30;99.90;;;;;;6193460;23;20512;-83
2023/03/27 06:41:31;;;;;;;6.75;1.90;;;2.30;99.90;;;;;;6220031;23;20004;-90
2023/03/27 06:43:56;;;;;;;5.90;1.25;;;2.30;99.90;;;;;;6219660;23;20012;-85
2023/03/27 06:46:22;;;;;;;7.32;1.23;;;2.40;99.90;;;;;;6219549;23;20048;-86
2023/03/27 06:48:49;;;;;;;6.05;1.00;;;2.40;99.90;;;;;;6191098;23;20020;-83
2023/03/27 06:51:15;;;;;;;9.52;1.67;;;2.50;99.90;;;;;;6219110;23;20024;-86
2023/03/27 06:53:41;;;;;;;6.32;0.95;;;2.60;99.90;;;;;;6192253;23;20447;-83
2023/03/27 06:56:08;;;;;;;6.38;1.63;;;2.70;99.90;;;;;;6192373;23;20009;-81
2023/03/27 06:58:33;;;;;;;5.82;1.02;;;2.80;99.90;;;;;;6216935;23;20012;-82
2023/03/27 07:00:59;;;;;;;3.33;0.98;;;2.90;99.90;;;;;;6191675;23;20016;-82
2023/03/27 07:03:25;;;;;;;5.88;1.10;;;3.00;99.90;;;;;;6191674;23;20044;-81
2023/03/27 07:05:50;;;;;;;6.88;1.38;;;3.10;99.90;;;;;;6217399;23;19997;-82
2023/03/27 07:08:17;;;;;;;6.72;1.50;;;3.10;99.90;;;;;;6192025;23;20075;-82
2023/03/27 07:10:43;;;;;;;10.85;1.42;;;3.20;99.90;;;;;;6166679;23;20048;-82
2023/03/27 07:13:09;;;;;;;5.80;1.17;;;3.20;99.90;;;;;;6190836;23;20077;-80
2023/03/27 07:15:35;;;;;;;7.10;1.35;;;3.30;99.90;;;;;;6190908;23;20084;-81
2023/03/27 07:18:05;;;;;;;4.75;0.98;;;3.30;99.90;;;;;;6217933;23;20013;-83
2023/03/27 07:20:33;;;;;;;9.10;1.20;;;3.40;99.90;;;;;;6191464;23;20394;-81
2023/03/27 07:23:00;;;;;;;7.50;1.25;;;3.50;99.90;;;;;;6191829;23;20013;-81
2023/03/27 07:25:28;;;;;;;5.72;1.85;;;3.60;99.90;;;;;;6191527;23;20095;-79
2023/03/27 07:27:58;;;;;;;10.15;1.13;;;3.60;99.90;;;;;;6191340;23;20112;-80
2023/03/27 07:30:24;;;;;;;5.85;1.00;;;3.70;99.90;;;;;;6218194;23;20373;-81
2023/03/27 07:32:50;;;;;;;5.20;0.93;;;3.80;99.90;;;;;;6191645;23;20009;-83
2023/03/27 07:35:16;;;;;;;11.98;1.60;;;3.90;99.90;;;;;;6191539;23;20016;-81
2023/03/27 07:37:41;;;;;;;7.10;0.93;;;4.00;99.90;;;;;;6191284;23;20009;-84
2023/03/27 07:40:12;;;;;;;9.52;1.60;;;4.10;99.90;;;;;;6165895;23;20020;-80
2023/03/27 07:42:43;;;;;;;8.05;0.90;;;4.30;99.90;;;;;;6190661;23;20350;-81
2023/03/27 07:45:11;;;;;;;5.68;1.00;;;4.50;99.90;;;;;;6217551;23;20437;-80
2023/03/27 07:47:38;;;;;;;3.38;0.85;;;4.60;99.90;;;;;;6217821;23;20043;-80
2023/03/27 07:50:04;;;;;;;6.22;1.10;;;4.50;99.90;;;;;;6191015;23;20017;-79
2023/03/27 07:52:29;;;;;;;5.35;1.33;;;4.30;99.90;;;;;;6191368;23;20012;-80
2023/03/27 07:54:55;;;;;;;4.72;0.85;;;4.10;99.90;;;;;;6191076;23;20334;-79
2023/03/27 07:57:21;;;;;;;3.97;0.93;;;3.90;99.90;;;;;;6165678;23;20013;-79
2023/03/27 07:59:47;;;;;;;5.28;0.77;;;3.70;99.90;;;;;;6191104;23;20012;-80
2023/03/27 08:02:12;;;;;;;5.03;1.10;;;3.60;99.90;;;;;;6191012;23;20012;-81
2023/03/27 08:04:38;;;;;;;7.68;1.15;;;3.70;99.90;;;;;;6218306;23;20008;-79
2023/03/27 08:07:04;;;;;;;6.13;1.35;;;3.70;99.90;;;;;;6190365;23;20012;-80
2023/03/27 08:09:29;;;;;;;6.90;1.05;;;3.80;99.90;;;;;;6190891;23;20343;-82
2023/03/27 08:11:55;;;;;;;6.10;1.52;;;4.00;99.90;;;;;;6217329;23;20020;-80
2023/03/27 08:14:21;;;;;;;6.45;0.95;;;4.10;99.90;;;;;;6191138;23;20055;-80
2023/03/27 08:16:46;;;;;;;9.20;0.93;;;4.20;99.90;;;;;;6190988;23;20434;-83
2023/03/27 08:19:13;;;;;;;9.13;1.25;;;4.30;99.90;;;;;;6217990;23;20462;-82
2023/03/27 08:21:38;;;;;;;6.43;1.85;;;4.50;99.90;;;;;;6190879;23;20021;-82
2023/03/27 08:24:04;;;;;;;5.32;0.85;;;4.60;99.90;;;;;;6217459;23;20013;-82
2023/03/27 08:26:31;;;;;;;7.95;1.30;;;4.70;99.90;;;;;;6190795;23;20012;-83
2023/03/27 08:28:57;;;;;;;8.63;1.20;;;4.80;99.90;;;;;;6190982;23;20039;-81
2023/03/27 08:31:24;;;;;;;6.05;1.25;;;5.00;99.90;;;;;;6190053;23;20075;-81
2023/03/27 08:33:50;;;;;;;7.45;1.85;;;5.10;99.90;;;;;;6217512;23;20009;-82
2023/03/27 08:36:18;;;;;;;7.53;1.40;;;5.20;99.90;;;;;;6190667;23;20016;-82
2023/03/27 08:38:45;;;;;;;4.28;1.05;;;5.40;99.90;;;;;;6165873;23;20083;-81
2023/03/27 08:41:37;;;;;;;8.27;1.77;;;5.60;99.90;;;;;;6190302;23;20027;-83
2023/03/27 08:44:08;;;;;;;5.65;1.20;;;5.60;99.90;;;;;;6190853;23;20015;-85
2023/03/27 08:46:43;;;;;;;8.43;1.52;;;5.40;99.90;;;;;;6190999;23;20087;-83
2023/03/27 08:49:20;;;;;;;4.75;1.08;;;5.10;99.90;;;;;;6217244;23;20005;-82
2023/03/27 08:52:00;;;;;;;8.50;1.50;;;4.80;99.90;;;;;;6217179;23;20013;-82
2023/03/27 08:54:32;;;;;;;6.22;0.98;;;4.40;99.90;;;;;;6189350;23;20086;-84
2023/03/27 08:56:58;;;;;;;7.82;0.98;;;3.90;99.90;;;;;;6190642;23;20477;-85
2023/03/27 08:59:27;;;;;;;7.43;1.40;;;3.50;99.90;;;;;;6191572;23;20053;-82
2023/03/27 09:02:31;;;;;;;7.28;1.15;;;3.20;99.90;;;;;;6190591;23;20086;-83
2023/03/27 09:05:06;;;;;;;5.68;1.10;;;3.10;99.90;;;;;;6217884;23;20169;-83
2023/03/27 09:08:00;;;;;;;4.07;1.00;;;3.00;99.90;;;;;;6217193;23;20012;-82
2023/03/27 09:10:46;;;;;;;7.18;1.38;;;3.40;99.90;;;;;;6217574;23;20013;-82
2023/03/27 09:13:15;;;;;;;4.60;0.93;;;4.20;99.90;;;;;;6217174;23;20015;-82
2023/03/27 09:15:53;;;;;;;7.50;1.02;;;5.30;99.90;;;;;;6165445;23;20012;-82
2023/03/27 09:18:45;;;;;;;5.25;1.02;;;6.30;99.90;;;;;;6217186;23;20358;-83
2023/03/27 09:21:26;;;;;;;3.10;0.88;;;7.30;99.90;;;;;;6211908;23;20074;-85
2023/03/27 09:23:54;;;;;;;5.95;1.30;;;7.60;99.90;;;;;;6190073;23;20020;-84
2023/03/27 09:26:26;;;;;;;3.88;0.85;;;7.40;99.90;;;;;;6190684;23;20048;-84
2023/03/27 09:29:00;;;;;;;3.45;0.85;;;7.60;99.90;;;;;;6190383;23;20404;-84
2023/03/27 09:31:28;;;;;;;5.25;1.20;;;8.00;99.90;;;;;;6215994;23;20027;-85
2023/03/27 09:33:56;;;;;;;8.30;1.48;;;7.90;99.90;;;;;;6190640;23;20012;-84
2023/03/27 09:36:23;;;;;;;6.90;1.40;;;7.30;99.90;;;;;;6190405;23;20016;-86
2023/03/27 09:38:57;;;;;;;4.50;1.05;;;7.00;99.90;;;;;;6216624;23;20013;-82
2023/03/27 09:41:28;;;;;;;6.30;1.20;;;7.00;99.90;;;;;;6217106;23;20022;-81
2023/03/27 09:44:03;;;;;;;6.05;1.00;;;6.90;99.90;;;;;;6216935;23;20008;-84
2023/03/27 09:46:30;;;;;;;4.78;1.20;;;6.80;99.90;;;;;;6190167;23;20017;-85
2023/03/27 09:49:12;;;;;;;12.88;1.52;;;6.90;99.90;;;;;;6216272;23;20112;-83
2023/03/27 09:51:45;;;;;;;6.43;1.40;;;7.20;99.90;;;;;;6190459;23;20051;-83
2023/03/27 09:54:13;;;;;;;7.15;1.10;;;7.20;99.90;;;;;;6189822;23;20016;-84
2023/03/27 09:56:52;;;;;;;6.38;1.65;;;7.30;99.90;;;;;;6189994;23;20085;-85
2023/03/27 09:59:24;;;;;;;4.63;0.82;;;7.40;99.90;;;;;;6190672;23;20013;-81
2023/03/27 10:01:54;;;;;;;12.23;1.38;;;7.10;99.90;;;;;;6200821;23;20023;-81
2023/03/27 10:04:22;;;;;;;9.15;1.85;;;6.60;99.90;;;;;;6202793;23;20039;-82
2023/03/27 10:06:55;;;;;;;6.28;1.08;;;6.20;99.90;;;;;;6207910;23;20078;-83
2023/03/27 10:09:33;;;;;;;8.45;1.00;;;6.00;99.90;;;;;;6210052;23;20036;-83
2023/03/27 10:12:03;;;;;;;9.13;1.20;;;6.00;99.90;;;;;;6209530;23;20016;-84
2023/03/27 10:14:33;;;;;;;3.67;0.80;;;6.20;99.90;;;;;;6196231;23;20323;-80
2023/03/27 10:17:00;;;;;;;5.13;0.80;;;6.50;99.90;;;;;;6191670;23;20007;-87
2023/03/27 10:19:27;;;;;;;6.13;0.93;;;6.50;99.90;;;;;;6218521;23;20061;-85
2023/03/27 10:22:02;;;;;;;6.05;1.48;;;6.60;99.90;;;;;;6166283;23;20035;-87
2023/03/27 10:24:35;;;;;;;4.43;0.90;;;6.80;99.90;;;;;;6190514;23;20355;-85
2023/03/27 10:27:05;;;;;;;3.35;0.70;;;6.90;99.90;;;;;;6215175;23;20062;-85
2023/03/27 10:29:34;;;;;;;3.08;0.80;;;7.00;99.90;;;;;;6191513;23;20017;-87
2023/03/27 10:32:03;;;;;;;4.32;1.05;;;7.20;99.90;;;;;;6189963;23;20013;-82
2023/03/27 10:34:35;;;;;;;3.70;0.77;;;7.30;99.90;;;;;;6189502;23;20005;-84
2023/03/27 10:37:03;;;;;;;2.67;0.75;;;7.30;99.90;;;;;;6216342;23;20047;-84
2023/03/27 10:39:33;;;;;;;5.22;0.82;;;7.40;99.90;;;;;;6216639;23;20027;-87
2023/03/27 10:42:08;;;;;;;5.75;0.90;;;7.50;99.90;;;;;;6189648;23;20013;-86
2023/03/27 10:44:36;;;;;;;;;;;7.50;99.90;;;;;;6166888;23;20086;-84
2023/03/27 10:47:03;;;;;;;4.75;0.85;;;7.60;99.90;;;;;;6216275;23;19912;-85
2023/03/27 10:50:00;;;;;;;4.30;0.90;;;7.70;99.90;;;;;;6216787;23;20512;-85
2023/03/27 10:53:04;;;;;;;2.20;0.55;;;7.90;99.90;;;;;;6191228;23;20346;-83
2023/03/27 10:55:50;;;;;;;9.95;0.90;;;8.10;99.90;;;;;;6192328;23;20012;-84
2023/03/27 10:58:29;;;;;;;4.68;0.90;;;8.10;99.90;;;;;;6217731;23;20062;-84
2023/03/27 11:01:19;;;;;;;7.45;1.00;;;8.10;99.90;;;;;;6191583;23;20122;-87
2023/03/27 11:03:52;;;;;;;6.03;0.70;;;8.20;99.90;;;;;;6190847;23;20023;-84
2023/03/27 11:06:19;;;;;;;3.95;0.68;;;8.40;99.90;;;;;;6190765;23;20454;-79
2023/03/27 11:09:14;;;;;;;5.80;0.85;;;8.60;99.90;;;;;;6191756;23;20070;-84
2023/03/27 11:12:03;;;;;;;7.28;1.10;;;8.80;99.90;;;;;;6166976;23;20078;-83
2023/03/27 11:14:51;;;;;;;3.88;0.90;;;8.60;99.90;;;;;;6218206;23;20462;-85
2023/03/27 11:17:50;;;;;;;10.77;0.93;;;8.40;99.90;;;;;;6192396;23;20005;-84
2023/03/27 11:20:49;;;;;;;7.35;1.00;;;7.70;99.90;;;;;;6074003;23;20050;-85
2023/03/27 11:23:17;;;;;;;5.25;0.90;;;6.90;99.90;;;;;;6067846;23;20071;-84
2023/03/27 11:26:22;;;;;;;3.03;0.50;;;6.30;99.90;;;;;;6068316;23;20085;-85
2023/03/27 11:29:19;;;;;;;8.60;0.93;;;6.20;99.90;;;;;;6011031;23;20464;-80
2023/03/27 11:31:48;;;;;;;5.07;0.50;;;6.30;99.90;;;;;;6066258;23;20381;-87
2023/03/27 11:34:35;;;;;;;6.53;0.70;;;6.70;99.90;;;;;;6069032;23;20011;-84
2023/03/27 11:37:06;;;;;;;8.73;0.82;;;7.10;99.90;;;;;;6068532;23;20318;-84
2023/03/27 11:39:49;;;;;;;6.82;1.27;;;7.50;99.90;;;;;;6044608;23;20019;-87
2023/03/27 11:42:28;;;;;;;4.85;0.68;;;7.80;99.90;;;;;;6069426;23;20062;-86
2023/03/27 11:44:54;;;;;;;3.78;0.70;;;8.20;99.90;;;;;;6068892;23;20055;-85
2023/03/27 11:47:39;;;;;;;5.68;1.30;;;8.40;99.90;;;;;;6150687;23;20013;-85
2023/03/27 11:50:21;;;;;;;4.75;0.90;;;8.60;99.90;;;;;;6191935;23;20012;-87
2023/03/27 11:53:02;;;;;;;5.13;0.77;;;8.30;99.90;;;;;;6191678;23;20304;-82
2023/03/27 11:55:40;;;;;;;7.55;1.15;;;8.10;99.90;;;;;;6191837;23;20086;-84
2023/03/27 11:58:14;;;;;;;6.97;1.00;;;7.80;99.90;;;;;;6217983;23;20012;-84
2023/03/27 12:00:48;;;;;;;3.17;0.77;;;7.70;99.90;;;;;;6191798;23;20024;-85
2023/03/27 12:03:24;;;;;;;5.22;1.25;;;7.30;99.90;;;;;;6166434;23;20757;-84
2023/03/27 12:06:18;;;;;;;;;;;;;;;;;;;;;
2023/03/27 12:25:12;;;;;;;8.65;1.02;;;7.50;99.90;;;;;;6248992;22;20028;-83
2023/03/27 12:27:53;;;;;;;5.53;1.00;;;7.60;99.90;;;;;;6220439;23;20012;-84
2023/03/27 12:30:50;;;;;;;;;;;;;;;;;;;;;
2023/03/27 12:33:19;;;;;;;10.27;0.70;;;7.50;99.90;;;;;;6220637;23;20008;-84
2023/03/27 12:35:49;;;;;;;4.78;0.88;;;7.70;99.90;;;;;;6248313;23;20279;-84
2023/03/27 12:38:37;;;;;;;9.90;1.77;;;8.20;99.90;;;;;;6221134;23;20083;-83
2023/03/27 12:41:05;;;;;;;11.07;1.67;;;8.60;99.90;;;;;;6221892;23;20104;-83
2023/03/27 12:43:38;;;;;;;5.45;1.42;;;8.50;99.90;;;;;;6221105;23;20497;-83
2023/03/27 12:46:22;;;;;;;10.57;1.10;;;8.30;99.90;;;;;;6221161;23;20020;-83
2023/03/27 12:48:55;;;;;;;6.22;1.20;;;8.10;99.90;;;;;;6220904;23;20012;-85
2023/03/27 12:51:36;;;;;;;6.65;1.33;;;8.20;99.90;;;;;;6196893;23;20016;-83
2023/03/27 12:54:15;;;;;;;7.30;1.67;;;8.50;99.90;;;;;;6247837;23;20008;-84
2023/03/27 12:56:58;;;;;;;5.65;1.00;;;8.80;99.90;;;;;;6220797;23;20027;-84
2023/03/27 12:59:27;;;;;;;4.95;0.98;;;9.10;99.90;;;;;;6221753;23;20502;-84
2023/03/27 13:02:05;;;;;;;6.72;1.38;;;9.20;99.90;;;;;;6247976;23;20410;-84
2023/03/27 13:04:50;;;;;;;;;;;;;;;;;;;;;
2023/03/27 13:07:35;;;;;;;6.23;1.40;;;8.60;99.90;;;;;;6221467;22;20018;-82
2023/03/27 13:10:16;;;;;;;6.65;1.00;;;8.60;99.90;;;;;;6221090;23;20090;-83
2023/03/27 13:12:45;;;;;;;6.63;1.25;;;9.00;99.90;;;;;;6248731;23;20035;-83
2023/03/27 13:15:29;;;;;;;6.13;1.08;;;9.10;99.90;;;;;;6220699;23;20047;-84
2023/03/27 13:18:15;;;;;;;4.55;0.90;;;9.50;99.90;;;;;;6247453;22;20019;-84
2023/03/27 13:21:02;;;;;;;6.78;0.93;;;9.30;99.90;;;;;;6195765;23;20015;-83
2023/03/27 13:24:09;;;;;;;10.90;1.20;;;8.90;99.90;;;;;;6220927;23;20020;-85
2023/03/27 13:27:03;;;;;;;8.32;1.25;;;8.50;99.90;;;;;;6177084;23;20022;-86
2023/03/27 13:29:33;;;;;;;4.35;0.77;;;8.50;99.90;;;;;;6221475;23;20008;-84
2023/03/27 13:32:04;;;;;;;4.05;0.70;;;8.50;99.90;;;;;;6248046;23;20012;-84
2023/03/27 13:34:41;;;;;;;4.80;0.80;;;8.70;99.90;;;;;;6195857;23;20012;-82
2023/03/27 13:37:06;;;;;;;6.38;1.23;;;9.00;99.90;;;;;;6247691;22;20032;-85
2023/03/27 13:40:09;;;;;;;6.57;1.05;;;9.20;99.90;;;;;;6220395;23;20338;-84
2023/03/27 13:42:38;;;;;;;4.88;1.20;;;9.30;99.90;;;;;;6220592;23;20016;-84
2023/03/27 13:45:24;;;;;;;7.20;0.82;;;8.80;99.90;;;;;;6220489;23;20019;-84